sensor_id;sensor_type;location;lat;lon;timestamp;P1;durP1;ratioP1;P2;durP2;ratioP2
18228;SDS011;9239;50.932;3.142;2022-09-01T00:00:04;3.58;;;2.35;;
18228;SDS011;9239;50.932;3.142;2022-09-01T00:02:33;4.03;;;2.60;;
18228;SDS011;9239;50.932;3.142;2022-09-01T00:05:00;3.13;;;2.28;;
18228;SDS011;9239;50.932;3.142;2022-09-01T00:07:28;4.28;;;2.55;;
18228;SDS011;9239;50.932;3.142;2022-09-01T00:09:57;3.40;;;2.30;;
18228;SDS011;9239;50.932;3.142;2022-09-01T00:12:24;4.40;;;2.50;;
18228;SDS011;9239;50.932;3.142;2022-09-01T00:14:52;3.92;;;2.45;;
18228;SDS011;9239;50.932;3.142;2022-09-01T00:17:19;5.70;;;2.70;;
18228;SDS011;9239;50.932;3.142;2022-09-01T00:19:46;3.08;;;2.78;;
18228;SDS011;9239;50.932;3.142;2022-09-01T00:22:13;3.10;;;2.80;;
18228;SDS011;9239;50.932;3.142;2022-09-01T00:24:40;5.40;;;3.10;;
18228;SDS011;9239;50.932;3.142;2022-09-01T00:27:09;4.78;;;3.28;;
18228;SDS011;9239;50.932;3.142;2022-09-01T00:29:36;4.18;;;2.95;;
18228;SDS011;9239;50.932;3.142;2022-09-01T00:32:03;4.13;;;2.58;;
18228;SDS011;9239;50.932;3.142;2022-09-01T00:34:30;4.13;;;3.00;;
18228;SDS011;9239;50.932;3.142;2022-09-01T00:36:57;3.80;;;2.80;;
18228;SDS011;9239;50.932;3.142;2022-09-01T00:39:24;5.10;;;3.78;;
18228;SDS011;9239;50.932;3.142;2022-09-01T00:41:51;3.75;;;3.40;;
18228;SDS011;9239;50.932;3.142;2022-09-01T00:44:20;4.78;;;3.42;;
18228;SDS011;9239;50.932;3.142;2022-09-01T00:46:51;3.90;;;3.40;;
18228;SDS011;9239;50.932;3.142;2022-09-01T00:49:21;7.32;;;3.03;;
18228;SDS011;9239;50.932;3.142;2022-09-01T00:51:54;6.07;;;3.08;;
18228;SDS011;9239;50.932;3.142;2022-09-01T00:54:25;5.00;;;3.80;;
18228;SDS011;9239;50.932;3.142;2022-09-01T00:56:55;3.67;;;3.15;;
18228;SDS011;9239;50.932;3.142;2022-09-01T00:59:25;3.33;;;2.92;;
18228;SDS011;9239;50.932;3.142;2022-09-01T01:01:53;4.72;;;3.20;;
18228;SDS011;9239;50.932;3.142;2022-09-01T01:04:20;6.80;;;3.50;;
18228;SDS011;9239;50.932;3.142;2022-09-01T01:06:49;5.63;;;3.33;;
18228;SDS011;9239;50.932;3.142;2022-09-01T01:09:23;5.45;;;3.20;;
18228;SDS011;9239;50.932;3.142;2022-09-01T01:11:51;3.05;;;2.75;;
18228;SDS011;9239;50.932;3.142;2022-09-01T01:14:18;3.60;;;2.92;;
18228;SDS011;9239;50.932;3.142;2022-09-01T01:16:47;5.28;;;3.15;;
18228;SDS011;9239;50.932;3.142;2022-09-01T01:19:17;3.30;;;3.00;;
18228;SDS011;9239;50.932;3.142;2022-09-01T01:22:03;3.78;;;3.40;;
18228;SDS011;9239;50.932;3.142;2022-09-01T01:24:52;4.25;;;3.58;;
18228;SDS011;9239;50.932;3.142;2022-09-01T01:27:21;3.70;;;3.38;;
18228;SDS011;9239;50.932;3.142;2022-09-01T01:29:47;3.22;;;2.92;;
18228;SDS011;9239;50.932;3.142;2022-09-01T01:32:17;3.10;;;2.88;;
18228;SDS011;9239;50.932;3.142;2022-09-01T01:34:44;3.40;;;3.03;;
18228;SDS011;9239;50.932;3.142;2022-09-01T01:37:13;4.70;;;2.78;;
18228;SDS011;9239;50.932;3.142;2022-09-01T01:39:41;3.20;;;2.97;;
18228;SDS011;9239;50.932;3.142;2022-09-01T01:42:10;4.93;;;3.03;;
18228;SDS011;9239;50.932;3.142;2022-09-01T01:44:37;3.60;;;3.28;;
18228;SDS011;9239;50.932;3.142;2022-09-01T01:47:05;3.63;;;3.17;;
18228;SDS011;9239;50.932;3.142;2022-09-01T01:49:37;5.10;;;3.15;;
18228;SDS011;9239;50.932;3.142;2022-09-01T01:52:07;3.97;;;3.60;;
18228;SDS011;9239;50.932;3.142;2022-09-01T01:54:37;5.88;;;3.53;;
18228;SDS011;9239;50.932;3.142;2022-09-01T01:57:05;3.80;;;3.38;;
18228;SDS011;9239;50.932;3.142;2022-09-01T01:59:33;3.58;;;3.25;;
18228;SDS011;9239;50.932;3.142;2022-09-01T02:02:02;5.15;;;3.05;;
18228;SDS011;9239;50.932;3.142;2022-09-01T02:04:34;4.20;;;3.80;;
18228;SDS011;9239;50.932;3.142;2022-09-01T02:07:01;8.13;;;3.65;;
18228;SDS011;9239;50.932;3.142;2022-09-01T02:09:28;4.60;;;2.75;;
18228;SDS011;9239;50.932;3.142;2022-09-01T02:11:55;3.20;;;2.90;;
18228;SDS011;9239;50.932;3.142;2022-09-01T02:14:23;3.22;;;2.92;;
18228;SDS011;9239;50.932;3.142;2022-09-01T02:16:51;3.30;;;3.00;;
18228;SDS011;9239;50.932;3.142;2022-09-01T02:19:20;3.58;;;2.85;;
18228;SDS011;9239;50.932;3.142;2022-09-01T02:21:47;4.05;;;3.17;;
18228;SDS011;9239;50.932;3.142;2022-09-01T02:24:18;5.40;;;3.10;;
18228;SDS011;9239;50.932;3.142;2022-09-01T02:26:46;5.43;;;2.90;;
18228;SDS011;9239;50.932;3.142;2022-09-01T02:29:14;4.97;;;2.92;;
18228;SDS011;9239;50.932;3.142;2022-09-01T02:31:45;7.10;;;3.75;;
18228;SDS011;9239;50.932;3.142;2022-09-01T02:34:16;3.72;;;3.10;;
18228;SDS011;9239;50.932;3.142;2022-09-01T02:36:45;3.70;;;3.38;;
18228;SDS011;9239;50.932;3.142;2022-09-01T02:39:13;3.92;;;3.33;;
18228;SDS011;9239;50.932;3.142;2022-09-01T02:41:41;3.42;;;3.13;;
18228;SDS011;9239;50.932;3.142;2022-09-01T02:44:08;5.68;;;3.25;;
18228;SDS011;9239;50.932;3.142;2022-09-01T02:46:36;4.18;;;3.10;;
18228;SDS011;9239;50.932;3.142;2022-09-01T02:49:05;4.38;;;3.15;;
18228;SDS011;9239;50.932;3.142;2022-09-01T02:51:40;3.25;;;2.75;;
18228;SDS011;9239;50.932;3.142;2022-09-01T02:54:08;5.28;;;2.72;;
18228;SDS011;9239;50.932;3.142;2022-09-01T02:56:38;5.22;;;2.90;;
18228;SDS011;9239;50.932;3.142;2022-09-01T02:59:05;5.95;;;3.20;;
18228;SDS011;9239;50.932;3.142;2022-09-01T03:01:37;3.70;;;2.97;;
18228;SDS011;9239;50.932;3.142;2022-09-01T03:04:05;4.20;;;2.90;;
18228;SDS011;9239;50.932;3.142;2022-09-01T03:06:34;7.78;;;3.00;;
18228;SDS011;9239;50.932;3.142;2022-09-01T03:09:04;3.95;;;2.60;;
18228;SDS011;9239;50.932;3.142;2022-09-01T03:11:37;4.40;;;2.42;;
18228;SDS011;9239;50.932;3.142;2022-09-01T03:14:05;4.90;;;3.22;;
18228;SDS011;9239;50.932;3.142;2022-09-01T03:16:32;3.40;;;2.42;;
18228;SDS011;9239;50.932;3.142;2022-09-01T03:19:01;4.82;;;3.72;;
18228;SDS011;9239;50.932;3.142;2022-09-01T03:21:28;3.53;;;2.60;;
18228;SDS011;9239;50.932;3.142;2022-09-01T03:23:56;4.85;;;2.72;;
18228;SDS011;9239;50.932;3.142;2022-09-01T03:26:27;6.07;;;3.60;;
18228;SDS011;9239;50.932;3.142;2022-09-01T03:28:55;4.95;;;3.05;;
18228;SDS011;9239;50.932;3.142;2022-09-01T03:31:23;3.42;;;2.67;;
18228;SDS011;9239;50.932;3.142;2022-09-01T03:33:52;4.20;;;2.40;;
18228;SDS011;9239;50.932;3.142;2022-09-01T03:36:21;2.78;;;2.55;;
18228;SDS011;9239;50.932;3.142;2022-09-01T03:38:49;6.18;;;2.92;;
18228;SDS011;9239;50.932;3.142;2022-09-01T03:41:17;3.83;;;2.20;;
18228;SDS011;9239;50.932;3.142;2022-09-01T03:43:48;5.47;;;2.70;;
18228;SDS011;9239;50.932;3.142;2022-09-01T03:46:19;3.38;;;2.45;;
18228;SDS011;9239;50.932;3.142;2022-09-01T03:48:47;5.10;;;2.92;;
18228;SDS011;9239;50.932;3.142;2022-09-01T03:51:16;4.90;;;2.78;;
18228;SDS011;9239;50.932;3.142;2022-09-01T03:53:45;4.05;;;2.88;;
18228;SDS011;9239;50.932;3.142;2022-09-01T03:56:12;5.80;;;2.83;;
18228;SDS011;9239;50.932;3.142;2022-09-01T03:58:39;6.78;;;3.33;;
18228;SDS011;9239;50.932;3.142;2022-09-01T04:01:10;9.35;;;3.22;;
18228;SDS011;9239;50.932;3.142;2022-09-01T04:03:38;4.20;;;2.97;;
18228;SDS011;9239;50.932;3.142;2022-09-01T04:06:07;4.13;;;3.00;;
18228;SDS011;9239;50.932;3.142;2022-09-01T04:08:35;8.05;;;3.40;;
18228;SDS011;9239;50.932;3.142;2022-09-01T04:11:09;8.10;;;3.35;;
18228;SDS011;9239;50.932;3.142;2022-09-01T04:13:39;6.03;;;3.13;;
18228;SDS011;9239;50.932;3.142;2022-09-01T04:16:14;4.60;;;2.70;;
18228;SDS011;9239;50.932;3.142;2022-09-01T04:18:58;5.00;;;2.80;;
18228;SDS011;9239;50.932;3.142;2022-09-01T04:21:25;6.10;;;2.97;;
18228;SDS011;9239;50.932;3.142;2022-09-01T04:23:54;4.07;;;2.60;;
18228;SDS011;9239;50.932;3.142;2022-09-01T04:26:24;4.80;;;3.20;;
18228;SDS011;9239;50.932;3.142;2022-09-01T04:28:55;5.28;;;2.97;;
18228;SDS011;9239;50.932;3.142;2022-09-01T04:31:24;4.35;;;2.85;;
18228;SDS011;9239;50.932;3.142;2022-09-01T04:33:51;6.28;;;2.88;;
18228;SDS011;9239;50.932;3.142;2022-09-01T04:36:19;5.32;;;2.63;;
18228;SDS011;9239;50.932;3.142;2022-09-01T04:38:48;10.65;;;3.35;;
18228;SDS011;9239;50.932;3.142;2022-09-01T04:41:18;3.88;;;2.83;;
18228;SDS011;9239;50.932;3.142;2022-09-01T04:43:47;8.68;;;3.80;;
18228;SDS011;9239;50.932;3.142;2022-09-01T04:46:16;3.85;;;2.90;;
18228;SDS011;9239;50.932;3.142;2022-09-01T04:48:46;6.80;;;2.50;;
18228;SDS011;9239;50.932;3.142;2022-09-01T04:51:13;4.18;;;3.00;;
18228;SDS011;9239;50.932;3.142;2022-09-01T04:53:41;4.38;;;3.20;;
18228;SDS011;9239;50.932;3.142;2022-09-01T04:56:12;7.10;;;3.28;;
18228;SDS011;9239;50.932;3.142;2022-09-01T04:58:43;4.00;;;2.60;;
18228;SDS011;9239;50.932;3.142;2022-09-01T05:01:13;3.40;;;2.78;;
18228;SDS011;9239;50.932;3.142;2022-09-01T05:03:41;5.03;;;3.13;;
18228;SDS011;9239;50.932;3.142;2022-09-01T05:06:13;3.58;;;2.97;;
18228;SDS011;9239;50.932;3.142;2022-09-01T05:08:41;4.80;;;3.28;;
18228;SDS011;9239;50.932;3.142;2022-09-01T05:11:09;7.85;;;3.78;;
18228;SDS011;9239;50.932;3.142;2022-09-01T05:13:41;8.45;;;3.42;;
18228;SDS011;9239;50.932;3.142;2022-09-01T05:16:10;6.10;;;3.50;;
18228;SDS011;9239;50.932;3.142;2022-09-01T05:18:39;6.40;;;3.85;;
18228;SDS011;9239;50.932;3.142;2022-09-01T05:21:10;7.72;;;3.97;;
18228;SDS011;9239;50.932;3.142;2022-09-01T05:23:40;6.35;;;3.17;;
18228;SDS011;9239;50.932;3.142;2022-09-01T05:26:11;10.77;;;3.55;;
18228;SDS011;9239;50.932;3.142;2022-09-01T05:28:41;14.02;;;3.85;;
18228;SDS011;9239;50.932;3.142;2022-09-01T05:31:07;8.23;;;4.00;;
18228;SDS011;9239;50.932;3.142;2022-09-01T05:33:34;11.40;;;4.53;;
18228;SDS011;9239;50.932;3.142;2022-09-01T05:36:03;7.45;;;3.75;;
18228;SDS011;9239;50.932;3.142;2022-09-01T05:38:32;8.05;;;4.03;;
18228;SDS011;9239;50.932;3.142;2022-09-01T05:41:02;5.28;;;3.55;;
18228;SDS011;9239;50.932;3.142;2022-09-01T05:43:32;4.35;;;3.83;;
18228;SDS011;9239;50.932;3.142;2022-09-01T05:46:00;6.90;;;3.58;;
18228;SDS011;9239;50.932;3.142;2022-09-01T05:48:28;4.75;;;3.45;;
18228;SDS011;9239;50.932;3.142;2022-09-01T05:50:56;4.53;;;3.45;;
18228;SDS011;9239;50.932;3.142;2022-09-01T05:53:23;7.07;;;3.97;;
18228;SDS011;9239;50.932;3.142;2022-09-01T05:55:51;5.90;;;3.80;;
18228;SDS011;9239;50.932;3.142;2022-09-01T05:58:22;5.28;;;3.92;;
18228;SDS011;9239;50.932;3.142;2022-09-01T06:00:51;9.05;;;7.13;;
18228;SDS011;9239;50.932;3.142;2022-09-01T06:03:20;5.97;;;3.72;;
18228;SDS011;9239;50.932;3.142;2022-09-01T06:05:48;6.65;;;4.00;;
18228;SDS011;9239;50.932;3.142;2022-09-01T06:08:20;11.55;;;4.85;;
18228;SDS011;9239;50.932;3.142;2022-09-01T06:10:49;9.70;;;4.50;;
18228;SDS011;9239;50.932;3.142;2022-09-01T06:13:17;9.50;;;5.03;;
18228;SDS011;9239;50.932;3.142;2022-09-01T06:15:47;6.82;;;5.10;;
18228;SDS011;9239;50.932;3.142;2022-09-01T06:18:15;6.00;;;4.43;;
18228;SDS011;9239;50.932;3.142;2022-09-01T06:20:43;9.07;;;4.50;;
18228;SDS011;9239;50.932;3.142;2022-09-01T06:23:12;7.32;;;4.60;;
18228;SDS011;9239;50.932;3.142;2022-09-01T06:25:42;5.30;;;4.25;;
18228;SDS011;9239;50.932;3.142;2022-09-01T06:28:11;7.75;;;4.18;;
18228;SDS011;9239;50.932;3.142;2022-09-01T06:30:40;4.43;;;4.00;;
18228;SDS011;9239;50.932;3.142;2022-09-01T06:33:11;9.40;;;4.70;;
18228;SDS011;9239;50.932;3.142;2022-09-01T06:35:39;6.45;;;4.45;;
18228;SDS011;9239;50.932;3.142;2022-09-01T06:38:09;9.52;;;5.60;;
18228;SDS011;9239;50.932;3.142;2022-09-01T06:40:37;7.03;;;4.47;;
18228;SDS011;9239;50.932;3.142;2022-09-01T06:43:06;9.05;;;4.32;;
18228;SDS011;9239;50.932;3.142;2022-09-01T06:45:33;6.93;;;4.70;;
18228;SDS011;9239;50.932;3.142;2022-09-01T06:48:06;11.45;;;5.15;;
18228;SDS011;9239;50.932;3.142;2022-09-01T06:50:35;8.93;;;4.75;;
18228;SDS011;9239;50.932;3.142;2022-09-01T06:53:03;8.20;;;4.55;;
18228;SDS011;9239;50.932;3.142;2022-09-01T06:55:35;6.80;;;4.55;;
18228;SDS011;9239;50.932;3.142;2022-09-01T06:58:03;6.93;;;4.75;;
18228;SDS011;9239;50.932;3.142;2022-09-01T07:00:31;9.70;;;5.35;;
18228;SDS011;9239;50.932;3.142;2022-09-01T07:03:06;6.45;;;4.72;;
18228;SDS011;9239;50.932;3.142;2022-09-01T07:05:38;8.10;;;5.50;;
18228;SDS011;9239;50.932;3.142;2022-09-01T07:08:06;6.53;;;4.97;;
18228;SDS011;9239;50.932;3.142;2022-09-01T07:10:41;8.10;;;4.63;;
18228;SDS011;9239;50.932;3.142;2022-09-01T07:13:10;11.00;;;5.63;;
18228;SDS011;9239;50.932;3.142;2022-09-01T07:15:42;7.65;;;5.28;;
18228;SDS011;9239;50.932;3.142;2022-09-01T07:18:14;6.75;;;4.97;;
18228;SDS011;9239;50.932;3.142;2022-09-01T07:20:43;10.38;;;5.68;;
18228;SDS011;9239;50.932;3.142;2022-09-01T07:23:13;5.93;;;5.28;;
18228;SDS011;9239;50.932;3.142;2022-09-01T07:25:46;7.35;;;5.68;;
18228;SDS011;9239;50.932;3.142;2022-09-01T07:28:14;8.30;;;5.47;;
18228;SDS011;9239;50.932;3.142;2022-09-01T07:30:45;13.07;;;5.95;;
18228;SDS011;9239;50.932;3.142;2022-09-01T07:33:15;7.82;;;5.95;;
18228;SDS011;9239;50.932;3.142;2022-09-01T07:35:46;11.02;;;6.05;;
18228;SDS011;9239;50.932;3.142;2022-09-01T07:38:13;11.52;;;5.93;;
18228;SDS011;9239;50.932;3.142;2022-09-01T07:40:44;6.93;;;6.15;;
18228;SDS011;9239;50.932;3.142;2022-09-01T07:43:14;10.23;;;6.43;;
18228;SDS011;9239;50.932;3.142;2022-09-01T07:45:46;6.30;;;5.70;;
18228;SDS011;9239;50.932;3.142;2022-09-01T07:48:15;6.97;;;6.10;;
18228;SDS011;9239;50.932;3.142;2022-09-01T07:50:46;7.13;;;5.90;;
18228;SDS011;9239;50.932;3.142;2022-09-01T07:53:16;7.70;;;5.60;;
18228;SDS011;9239;50.932;3.142;2022-09-01T07:55:46;10.10;;;6.53;;
18228;SDS011;9239;50.932;3.142;2022-09-01T07:58:15;7.60;;;6.32;;
18228;SDS011;9239;50.932;3.142;2022-09-01T08:00:43;9.88;;;6.15;;
18228;SDS011;9239;50.932;3.142;2022-09-01T08:03:11;8.52;;;6.13;;
18228;SDS011;9239;50.932;3.142;2022-09-01T08:05:38;8.88;;;5.80;;
18228;SDS011;9239;50.932;3.142;2022-09-01T08:08:07;8.20;;;6.85;;
18228;SDS011;9239;50.932;3.142;2022-09-01T08:10:36;7.07;;;6.38;;
18228;SDS011;9239;50.932;3.142;2022-09-01T08:13:04;9.10;;;6.50;;
18228;SDS011;9239;50.932;3.142;2022-09-01T08:15:31;9.98;;;6.88;;
18228;SDS011;9239;50.932;3.142;2022-09-01T08:17:58;7.03;;;6.22;;
18228;SDS011;9239;50.932;3.142;2022-09-01T08:20:24;7.95;;;6.22;;
18228;SDS011;9239;50.932;3.142;2022-09-01T08:22:51;8.07;;;7.05;;
18228;SDS011;9239;50.932;3.142;2022-09-01T08:25:20;7.78;;;6.50;;
18228;SDS011;9239;50.932;3.142;2022-09-01T08:27:47;11.02;;;6.65;;
18228;SDS011;9239;50.932;3.142;2022-09-01T08:30:14;9.38;;;6.82;;
18228;SDS011;9239;50.932;3.142;2022-09-01T08:32:41;9.23;;;7.45;;
18228;SDS011;9239;50.932;3.142;2022-09-01T08:35:08;7.78;;;6.97;;
18228;SDS011;9239;50.932;3.142;2022-09-01T08:37:36;9.82;;;7.80;;
18228;SDS011;9239;50.932;3.142;2022-09-01T08:40:04;6.75;;;6.05;;
18228;SDS011;9239;50.932;3.142;2022-09-01T08:42:38;8.75;;;7.30;;
18228;SDS011;9239;50.932;3.142;2022-09-01T08:45:19;8.88;;;7.07;;
18228;SDS011;9239;50.932;3.142;2022-09-01T08:47:51;13.25;;;7.45;;
18228;SDS011;9239;50.932;3.142;2022-09-01T08:50:19;7.95;;;6.80;;
18228;SDS011;9239;50.932;3.142;2022-09-01T08:52:48;10.68;;;7.40;;
18228;SDS011;9239;50.932;3.142;2022-09-01T08:55:21;7.85;;;6.78;;
18228;SDS011;9239;50.932;3.142;2022-09-01T08:57:55;9.07;;;7.68;;
18228;SDS011;9239;50.932;3.142;2022-09-01T09:00:25;8.57;;;6.72;;
18228;SDS011;9239;50.932;3.142;2022-09-01T09:03:00;10.43;;;7.00;;
18228;SDS011;9239;50.932;3.142;2022-09-01T09:05:38;8.82;;;7.85;;
18228;SDS011;9239;50.932;3.142;2022-09-01T09:08:24;7.63;;;6.82;;
18228;SDS011;9239;50.932;3.142;2022-09-01T09:11:03;11.15;;;7.13;;
18228;SDS011;9239;50.932;3.142;2022-09-01T09:13:37;12.52;;;7.25;;
18228;SDS011;9239;50.932;3.142;2022-09-01T09:16:14;7.35;;;6.78;;
18228;SDS011;9239;50.932;3.142;2022-09-01T09:18:47;10.40;;;7.25;;
18228;SDS011;9239;50.932;3.142;2022-09-01T09:21:17;8.27;;;6.82;;
18228;SDS011;9239;50.932;3.142;2022-09-01T09:23:49;9.55;;;7.45;;
18228;SDS011;9239;50.932;3.142;2022-09-01T09:26:23;11.80;;;8.10;;
18228;SDS011;9239;50.932;3.142;2022-09-01T09:28:52;8.25;;;7.55;;
18228;SDS011;9239;50.932;3.142;2022-09-01T09:31:26;8.52;;;7.63;;
18228;SDS011;9239;50.932;3.142;2022-09-01T09:33:55;9.25;;;6.80;;
18228;SDS011;9239;50.932;3.142;2022-09-01T09:36:27;9.35;;;7.30;;
18228;SDS011;9239;50.932;3.142;2022-09-01T09:39:03;8.57;;;7.00;;
18228;SDS011;9239;50.932;3.142;2022-09-01T09:41:32;7.60;;;6.60;;
18228;SDS011;9239;50.932;3.142;2022-09-01T09:44:03;7.43;;;6.75;;
18228;SDS011;9239;50.932;3.142;2022-09-01T09:46:39;8.00;;;6.60;;
18228;SDS011;9239;50.932;3.142;2022-09-01T09:49:10;7.72;;;6.60;;
18228;SDS011;9239;50.932;3.142;2022-09-01T09:51:41;9.88;;;6.85;;
18228;SDS011;9239;50.932;3.142;2022-09-01T09:54:10;7.47;;;6.20;;
18228;SDS011;9239;50.932;3.142;2022-09-01T09:56:41;9.73;;;7.38;;
18228;SDS011;9239;50.932;3.142;2022-09-01T09:59:22;9.95;;;7.40;;
18228;SDS011;9239;50.932;3.142;2022-09-01T10:01:56;8.27;;;7.40;;
18228;SDS011;9239;50.932;3.142;2022-09-01T10:04:34;7.78;;;6.88;;
18228;SDS011;9239;50.932;3.142;2022-09-01T10:07:21;10.57;;;7.00;;
18228;SDS011;9239;50.932;3.142;2022-09-01T10:09:51;10.07;;;8.32;;
18228;SDS011;9239;50.932;3.142;2022-09-01T10:12:18;9.15;;;6.63;;
18228;SDS011;9239;50.932;3.142;2022-09-01T10:14:49;8.48;;;7.20;;
18228;SDS011;9239;50.932;3.142;2022-09-01T10:17:20;6.75;;;6.13;;
18228;SDS011;9239;50.932;3.142;2022-09-01T10:19:52;9.30;;;5.80;;
18228;SDS011;9239;50.932;3.142;2022-09-01T10:22:22;7.13;;;6.13;;
18228;SDS011;9239;50.932;3.142;2022-09-01T10:24:50;9.93;;;6.53;;
18228;SDS011;9239;50.932;3.142;2022-09-01T10:27:18;7.03;;;6.20;;
18228;SDS011;9239;50.932;3.142;2022-09-01T10:29:49;7.25;;;6.55;;
18228;SDS011;9239;50.932;3.142;2022-09-01T10:32:21;7.50;;;5.82;;
18228;SDS011;9239;50.932;3.142;2022-09-01T10:34:51;8.38;;;6.50;;
18228;SDS011;9239;50.932;3.142;2022-09-01T10:37:19;6.18;;;5.45;;
18228;SDS011;9239;50.932;3.142;2022-09-01T10:42:38;4.90;;;4.43;;
18228;SDS011;9239;50.932;3.142;2022-09-01T10:45:08;5.95;;;5.20;;
18228;SDS011;9239;50.932;3.142;2022-09-01T10:47:43;5.57;;;5.07;;
18228;SDS011;9239;50.932;3.142;2022-09-01T10:50:23;6.80;;;5.40;;
18228;SDS011;9239;50.932;3.142;2022-09-01T10:52:55;4.97;;;4.57;;
18228;SDS011;9239;50.932;3.142;2022-09-01T11:01:09;5.95;;;4.40;;
18228;SDS011;9239;50.932;3.142;2022-09-01T11:03:37;5.93;;;4.57;;
18228;SDS011;9239;50.932;3.142;2022-09-01T11:09:26;3.75;;;3.33;;
18228;SDS011;9239;50.932;3.142;2022-09-01T11:18:08;4.20;;;3.90;;
18228;SDS011;9239;50.932;3.142;2022-09-01T11:20:39;3.90;;;3.60;;
18228;SDS011;9239;50.932;3.142;2022-09-01T11:23:09;6.28;;;3.95;;
18228;SDS011;9239;50.932;3.142;2022-09-01T11:25:39;7.53;;;4.05;;
18228;SDS011;9239;50.932;3.142;2022-09-01T11:34:14;4.90;;;3.55;;
18228;SDS011;9239;50.932;3.142;2022-09-01T11:36:45;4.15;;;3.75;;
18228;SDS011;9239;50.932;3.142;2022-09-01T11:39:23;3.75;;;3.40;;
18228;SDS011;9239;50.932;3.142;2022-09-01T11:41:57;4.97;;;3.90;;
18228;SDS011;9239;50.932;3.142;2022-09-01T11:44:28;5.93;;;3.92;;
18228;SDS011;9239;50.932;3.142;2022-09-01T11:47:01;4.05;;;3.58;;
18228;SDS011;9239;50.932;3.142;2022-09-01T11:49:32;4.93;;;3.47;;
18228;SDS011;9239;50.932;3.142;2022-09-01T11:52:00;4.18;;;3.00;;
18228;SDS011;9239;50.932;3.142;2022-09-01T11:54:35;5.47;;;3.75;;
18228;SDS011;9239;50.932;3.142;2022-09-01T11:57:15;5.75;;;3.70;;
18228;SDS011;9239;50.932;3.142;2022-09-01T11:59:53;4.40;;;3.67;;
18228;SDS011;9239;50.932;3.142;2022-09-01T12:02:21;6.38;;;3.63;;
18228;SDS011;9239;50.932;3.142;2022-09-01T12:04:51;4.38;;;3.65;;
18228;SDS011;9239;50.932;3.142;2022-09-01T12:07:24;3.88;;;3.42;;
18228;SDS011;9239;50.932;3.142;2022-09-01T12:10:03;4.18;;;3.88;;
18228;SDS011;9239;50.932;3.142;2022-09-01T12:12:38;4.78;;;3.72;;
18228;SDS011;9239;50.932;3.142;2022-09-01T12:15:08;6.07;;;3.63;;
18228;SDS011;9239;50.932;3.142;2022-09-01T12:17:43;3.58;;;3.28;;
18228;SDS011;9239;50.932;3.142;2022-09-01T12:20:27;3.53;;;3.20;;
18228;SDS011;9239;50.932;3.142;2022-09-01T12:22:57;3.40;;;3.13;;
18228;SDS011;9239;50.932;3.142;2022-09-01T12:25:27;4.32;;;3.92;;
18228;SDS011;9239;50.932;3.142;2022-09-01T12:27:55;3.67;;;3.38;;
18228;SDS011;9239;50.932;3.142;2022-09-01T12:30:24;5.13;;;3.70;;
18228;SDS011;9239;50.932;3.142;2022-09-01T12:32:52;3.80;;;3.50;;
18228;SDS011;9239;50.932;3.142;2022-09-01T12:35:21;4.78;;;3.20;;
18228;SDS011;9239;50.932;3.142;2022-09-01T12:37:50;5.95;;;3.33;;
18228;SDS011;9239;50.932;3.142;2022-09-01T12:40:25;5.53;;;3.78;;
18228;SDS011;9239;50.932;3.142;2022-09-01T12:42:57;4.03;;;3.60;;
18228;SDS011;9239;50.932;3.142;2022-09-01T12:45:37;4.28;;;3.58;;
18228;SDS011;9239;50.932;3.142;2022-09-01T12:48:06;3.80;;;3.33;;
18228;SDS011;9239;50.932;3.142;2022-09-01T12:50:49;5.90;;;3.63;;
18228;SDS011;9239;50.932;3.142;2022-09-01T12:53:21;7.85;;;6.47;;
18228;SDS011;9239;50.932;3.142;2022-09-01T12:56:03;3.42;;;3.13;;
18228;SDS011;9239;50.932;3.142;2022-09-01T12:59:03;3.67;;;3.38;;
18228;SDS011;9239;50.932;3.142;2022-09-01T13:01:33;3.92;;;3.63;;
18228;SDS011;9239;50.932;3.142;2022-09-01T13:04:08;4.78;;;3.78;;
18228;SDS011;9239;50.932;3.142;2022-09-01T13:06:40;5.80;;;3.17;;
18228;SDS011;9239;50.932;3.142;2022-09-01T13:09:09;4.53;;;3.42;;
18228;SDS011;9239;50.932;3.142;2022-09-01T13:11:36;4.28;;;3.45;;
18228;SDS011;9239;50.932;3.142;2022-09-01T13:14:03;4.20;;;3.35;;
18228;SDS011;9239;50.932;3.142;2022-09-01T13:16:30;3.97;;;3.63;;
18228;SDS011;9239;50.932;3.142;2022-09-01T13:18:57;3.65;;;3.30;;
18228;SDS011;9239;50.932;3.142;2022-09-01T13:21:24;4.15;;;3.83;;
18228;SDS011;9239;50.932;3.142;2022-09-01T13:23:51;4.20;;;3.80;;
18228;SDS011;9239;50.932;3.142;2022-09-01T13:26:19;4.65;;;3.67;;
18228;SDS011;9239;50.932;3.142;2022-09-01T13:28:46;3.60;;;3.30;;
18228;SDS011;9239;50.932;3.142;2022-09-01T13:31:14;3.92;;;3.22;;
18228;SDS011;9239;50.932;3.142;2022-09-01T13:33:40;3.70;;;3.40;;
18228;SDS011;9239;50.932;3.142;2022-09-01T13:36:07;3.72;;;3.40;;
18228;SDS011;9239;50.932;3.142;2022-09-01T13:38:34;3.80;;;3.40;;
18228;SDS011;9239;50.932;3.142;2022-09-01T13:41:01;3.33;;;3.03;;
18228;SDS011;9239;50.932;3.142;2022-09-01T13:43:29;4.68;;;3.28;;
18228;SDS011;9239;50.932;3.142;2022-09-01T13:45:56;3.67;;;3.10;;
18228;SDS011;9239;50.932;3.142;2022-09-01T13:48:23;3.65;;;3.38;;
18228;SDS011;9239;50.932;3.142;2022-09-01T13:50:52;3.58;;;3.28;;
18228;SDS011;9239;50.932;3.142;2022-09-01T13:53:19;4.13;;;3.67;;
18228;SDS011;9239;50.932;3.142;2022-09-01T13:55:47;4.30;;;3.90;;
18228;SDS011;9239;50.932;3.142;2022-09-01T13:58:14;6.40;;;3.15;;
18228;SDS011;9239;50.932;3.142;2022-09-01T14:00:43;5.63;;;3.42;;
18228;SDS011;9239;50.932;3.142;2022-09-01T14:03:13;3.00;;;2.80;;
18228;SDS011;9239;50.932;3.142;2022-09-01T14:05:43;3.08;;;2.78;;
18228;SDS011;9239;50.932;3.142;2022-09-01T14:08:12;5.03;;;3.15;;
18228;SDS011;9239;50.932;3.142;2022-09-01T14:10:41;4.22;;;3.33;;
18228;SDS011;9239;50.932;3.142;2022-09-01T14:13:10;4.70;;;2.90;;
18228;SDS011;9239;50.932;3.142;2022-09-01T14:15:38;5.15;;;3.10;;
18228;SDS011;9239;50.932;3.142;2022-09-01T14:18:07;3.00;;;2.70;;
18228;SDS011;9239;50.932;3.142;2022-09-01T14:20:34;4.00;;;3.08;;
18228;SDS011;9239;50.932;3.142;2022-09-01T14:23:06;2.92;;;2.63;;
18228;SDS011;9239;50.932;3.142;2022-09-01T14:25:35;3.70;;;3.30;;
18228;SDS011;9239;50.932;3.142;2022-09-01T14:28:03;4.07;;;2.50;;
18228;SDS011;9239;50.932;3.142;2022-09-01T14:30:30;3.15;;;2.65;;
18228;SDS011;9239;50.932;3.142;2022-09-01T14:32:58;4.50;;;3.05;;
18228;SDS011;9239;50.932;3.142;2022-09-01T14:35:28;3.03;;;2.75;;
18228;SDS011;9239;50.932;3.142;2022-09-01T14:37:57;5.50;;;2.72;;
18228;SDS011;9239;50.932;3.142;2022-09-01T14:40:25;2.65;;;2.45;;
18228;SDS011;9239;50.932;3.142;2022-09-01T14:42:53;2.85;;;2.65;;
18228;SDS011;9239;50.932;3.142;2022-09-01T14:45:20;3.80;;;2.53;;
18228;SDS011;9239;50.932;3.142;2022-09-01T14:47:50;3.13;;;2.83;;
18228;SDS011;9239;50.932;3.142;2022-09-01T14:50:18;3.45;;;2.75;;
18228;SDS011;9239;50.932;3.142;2022-09-01T14:52:48;3.10;;;2.53;;
18228;SDS011;9239;50.932;3.142;2022-09-01T14:55:17;3.05;;;2.72;;
18228;SDS011;9239;50.932;3.142;2022-09-01T14:57:46;3.42;;;2.47;;
18228;SDS011;9239;50.932;3.142;2022-09-01T15:00:14;5.53;;;2.88;;
18228;SDS011;9239;50.932;3.142;2022-09-01T15:02:42;2.88;;;2.42;;
18228;SDS011;9239;50.932;3.142;2022-09-01T15:05:10;2.70;;;2.40;;
18228;SDS011;9239;50.932;3.142;2022-09-01T15:07:38;3.30;;;2.70;;
18228;SDS011;9239;50.932;3.142;2022-09-01T15:10:07;5.55;;;2.85;;
18228;SDS011;9239;50.932;3.142;2022-09-01T15:12:36;2.58;;;2.38;;
18228;SDS011;9239;50.932;3.142;2022-09-01T15:15:04;2.63;;;2.42;;
18228;SDS011;9239;50.932;3.142;2022-09-01T15:17:33;2.55;;;2.38;;
18228;SDS011;9239;50.932;3.142;2022-09-01T15:20:00;4.18;;;2.38;;
18228;SDS011;9239;50.932;3.142;2022-09-01T15:22:44;4.30;;;2.38;;
18228;SDS011;9239;50.932;3.142;2022-09-01T15:25:12;2.95;;;2.65;;
18228;SDS011;9239;50.932;3.142;2022-09-01T15:27:39;2.55;;;2.25;;
18228;SDS011;9239;50.932;3.142;2022-09-01T15:30:07;3.33;;;2.47;;
18228;SDS011;9239;50.932;3.142;2022-09-01T15:32:41;2.70;;;2.50;;
18228;SDS011;9239;50.932;3.142;2022-09-01T15:35:08;4.35;;;2.70;;
18228;SDS011;9239;50.932;3.142;2022-09-01T15:37:35;4.43;;;2.70;;
18228;SDS011;9239;50.932;3.142;2022-09-01T15:40:03;4.30;;;2.55;;